createdAt,value
2022-08-30T00:00:18.715Z,3.20
2022-08-30T00:03:08.783Z,2.80
2022-08-30T00:05:58.243Z,2.63
2022-08-30T00:08:48.894Z,2.77
2022-08-30T00:11:37.891Z,2.90
2022-08-30T00:14:27.452Z,2.70
2022-08-30T00:17:19.266Z,3.43
2022-08-30T00:20:10.509Z,3.10
2022-08-30T00:22:59.411Z,3.10
2022-08-30T00:25:48.261Z,2.77
2022-08-30T00:28:37.623Z,3.80
2022-08-30T00:31:26.531Z,2.57
2022-08-30T00:34:16.787Z,2.80
2022-08-30T00:37:06.412Z,2.83
2022-08-30T00:39:55.235Z,3.37
2022-08-30T00:42:44.435Z,3.30
2022-08-30T00:45:39.928Z,3.20
2022-08-30T00:48:30.422Z,3.10
2022-08-30T00:51:21.325Z,2.73
2022-08-30T00:54:10.286Z,3.17
2022-08-30T00:56:59.297Z,2.77
2022-08-30T00:59:49.343Z,3.40
2022-08-30T01:02:38.749Z,2.70
2022-08-30T01:05:27.594Z,3.20
2022-08-30T01:08:17.745Z,3.17
2022-08-30T01:11:06.845Z,2.77
2022-08-30T01:13:56.136Z,3.00
2022-08-30T01:16:46.147Z,3.37
2022-08-30T01:19:37.783Z,3.40
2022-08-30T01:22:34.659Z,3.30
2022-08-30T01:25:26.553Z,2.70
2022-08-30T01:28:17.650Z,2.70
2022-08-30T01:31:06.645Z,2.80
2022-08-30T01:33:55.635Z,3.10
2022-08-30T01:36:45.839Z,2.80
2022-08-30T01:39:34.946Z,3.00
2022-08-30T01:42:25.295Z,3.47
2022-08-30T01:45:16.859Z,2.60
2022-08-30T01:48:06.709Z,2.77
2022-08-30T01:50:55.696Z,3.37
2022-08-30T01:53:45.606Z,2.80
2022-08-30T01:56:34.471Z,2.73
2022-08-30T01:59:24.636Z,2.90
2022-08-30T02:02:13.488Z,3.40
2022-08-30T02:05:02.585Z,3.30
2022-08-30T02:07:51.429Z,3.40
2022-08-30T02:10:40.258Z,3.30
2022-08-30T02:13:29.234Z,3.70
2022-08-30T02:16:22.616Z,4.17
2022-08-30T02:19:11.457Z,4.03
2022-08-30T02:22:01.759Z,3.60
2022-08-30T02:24:50.671Z,3.30
2022-08-30T02:27:39.522Z,3.50
2022-08-30T02:30:31.605Z,4.10
2022-08-30T02:33:22.089Z,4.00
2022-08-30T02:36:11.023Z,4.10
2022-08-30T02:38:59.883Z,3.13
2022-08-30T02:41:48.749Z,3.50
2022-08-30T02:44:37.680Z,3.33
2022-08-30T02:47:26.754Z,4.10
2022-08-30T02:50:16.921Z,3.30
2022-08-30T02:53:05.730Z,3.50
2022-08-30T02:55:54.654Z,3.70
2022-08-30T02:58:44.423Z,3.73
2022-08-30T03:01:36.118Z,4.20
2022-08-30T03:04:26.552Z,3.53
2022-08-30T03:07:17.504Z,4.30
2022-08-30T03:10:06.539Z,3.87
2022-08-30T03:12:55.398Z,3.47
2022-08-30T03:15:44.218Z,4.10
2022-08-30T03:18:33.447Z,4.20
2022-08-30T03:21:22.322Z,4.10
2022-08-30T03:24:13.527Z,4.20
2022-08-30T03:27:02.345Z,4.67
2022-08-30T03:29:51.184Z,4.67
2022-08-30T03:32:40.393Z,4.87
2022-08-30T03:35:29.298Z,4.47
2022-08-30T03:38:22.123Z,4.57
2022-08-30T03:41:12.315Z,4.80
2022-08-30T03:44:02.386Z,4.60
2022-08-30T03:46:52.945Z,5.23
2022-08-30T03:49:41.771Z,4.20
2022-08-30T03:52:30.591Z,5.10
2022-08-30T03:55:19.466Z,5.53
2022-08-30T03:58:09.878Z,5.50
2022-08-30T04:00:58.812Z,4.50
2022-08-30T04:03:47.706Z,4.90
2022-08-30T04:06:36.546Z,5.67
2022-08-30T04:09:25.779Z,4.93
2022-08-30T04:12:18.329Z,5.37
2022-08-30T04:15:13.602Z,5.40
2022-08-30T04:18:02.511Z,5.27
2022-08-30T04:20:52.306Z,5.30
2022-08-30T04:23:41.181Z,5.57
2022-08-30T04:26:30.160Z,6.03
2022-08-30T04:29:18.963Z,5.83
2022-08-30T04:32:09.213Z,5.60
2022-08-30T04:34:59.616Z,5.13
2022-08-30T04:37:48.461Z,6.00
2022-08-30T04:40:37.427Z,5.70
2022-08-30T04:43:26.743Z,5.60
2022-08-30T04:46:15.716Z,5.70
2022-08-30T04:49:06.677Z,5.77
2022-08-30T04:51:55.839Z,5.83
2022-08-30T04:54:44.667Z,6.37
2022-08-30T04:57:33.514Z,6.03
2022-08-30T05:00:22.573Z,6.00
2022-08-30T05:03:12.588Z,6.80
2022-08-30T05:06:03.093Z,6.53
2022-08-30T05:08:52.770Z,6.17
2022-08-30T05:11:43.198Z,5.80
2022-08-30T05:14:33.962Z,6.27
2022-08-30T05:17:22.786Z,6.30
2022-08-30T05:20:12.669Z,6.40
2022-08-30T05:23:03.234Z,6.20
2022-08-30T05:25:52.066Z,6.47
2022-08-30T05:28:41.142Z,5.63
2022-08-30T05:31:31.026Z,5.80
2022-08-30T05:34:20.697Z,7.13
2022-08-30T05:37:09.589Z,6.27
2022-08-30T05:40:02.872Z,6.13
2022-08-30T05:42:51.865Z,5.53
2022-08-30T05:45:40.792Z,5.20
2022-08-30T05:48:29.755Z,6.37
2022-08-30T05:51:20.011Z,5.80
2022-08-30T05:54:09.417Z,5.93
2022-08-30T05:56:59.594Z,5.57
2022-08-30T05:59:48.453Z,5.13
2022-08-30T06:02:37.320Z,5.90
2022-08-30T06:05:26.190Z,3.63
2022-08-30T06:08:15.091Z,3.60
2022-08-30T06:11:03.977Z,4.47
2022-08-30T06:13:54.815Z,3.50
2022-08-30T06:16:45.569Z,3.00
2022-08-30T06:19:34.497Z,3.10
2022-08-30T06:22:23.329Z,3.90
2022-08-30T06:25:13.330Z,2.90
2022-08-30T06:28:02.305Z,2.60
2022-08-30T06:30:52.505Z,2.37
2022-08-30T06:33:42.314Z,3.00
2022-08-30T06:36:31.443Z,2.23
2022-08-30T06:39:21.193Z,2.07
2022-08-30T06:42:09.990Z,2.77
2022-08-30T06:44:58.900Z,2.20
2022-08-30T06:47:49.909Z,2.43
2022-08-30T06:50:38.800Z,2.80
2022-08-30T06:53:29.555Z,2.53
2022-08-30T06:56:20.350Z,2.40
2022-08-30T06:59:09.186Z,2.20
2022-08-30T07:01:58.426Z,2.50
2022-08-30T07:04:48.814Z,2.17
2022-08-30T07:07:37.648Z,2.20
2022-08-30T07:10:26.466Z,2.20
2022-08-30T07:13:15.392Z,2.57
2022-08-30T07:16:10.662Z,2.60
2022-08-30T07:19:00.385Z,2.00
2022-08-30T07:21:51.162Z,2.90
2022-08-30T07:24:40.375Z,2.50
2022-08-30T07:27:29.405Z,2.60
2022-08-30T07:30:18.251Z,2.30
2022-08-30T07:33:07.227Z,2.20
2022-08-30T07:35:56.042Z,2.10
2022-08-30T07:38:46.731Z,1.90
2022-08-30T07:41:38.446Z,2.10
2022-08-30T07:44:27.344Z,2.38
2022-08-30T07:47:16.731Z,2.88
2022-08-30T07:50:07.199Z,2.30
2022-08-30T07:52:56.246Z,2.15
2022-08-30T07:55:46.739Z,2.50
2022-08-30T07:58:37.550Z,2.67
2022-08-30T08:01:26.824Z,2.13
2022-08-30T08:04:15.693Z,2.42
2022-08-30T08:07:04.543Z,2.28
2022-08-30T08:09:53.427Z,1.92
2022-08-30T08:12:43.675Z,2.10
2022-08-30T08:15:32.673Z,1.83
2022-08-30T08:18:21.571Z,2.35
2022-08-30T08:21:10.443Z,2.10
2022-08-30T08:23:59.417Z,1.90
2022-08-30T08:26:48.240Z,2.25
2022-08-30T08:29:38.701Z,1.90
2022-08-30T08:32:27.537Z,1.98
2022-08-30T08:35:17.038Z,2.03
2022-08-30T08:38:05.911Z,2.03
2022-08-30T08:40:59.621Z,1.98
2022-08-30T08:43:48.672Z,1.90
2022-08-30T08:46:45.511Z,1.75
2022-08-30T08:49:37.335Z,1.70
2022-08-30T08:52:46.297Z,2.00
2022-08-30T08:55:35.411Z,2.05
2022-08-30T08:58:25.959Z,2.42
2022-08-30T09:01:16.781Z,2.50
2022-08-30T09:04:09.632Z,1.98
2022-08-30T09:07:00.312Z,1.98
2022-08-30T09:09:49.428Z,1.90
2022-08-30T09:12:38.284Z,2.13
2022-08-30T09:15:29.296Z,2.88
2022-08-30T09:18:20.115Z,2.10
2022-08-30T09:21:11.505Z,2.10
2022-08-30T09:24:01.360Z,2.30
2022-08-30T09:26:52.274Z,2.05
2022-08-30T09:29:51.088Z,2.78
2022-08-30T09:32:41.308Z,2.65
2022-08-30T09:35:35.484Z,2.42
2022-08-30T09:38:28.066Z,1.90
2022-08-30T09:41:31.071Z,2.13
2022-08-30T09:44:21.045Z,2.03
2022-08-30T09:47:23.924Z,1.83
2022-08-30T09:50:14.902Z,2.10
2022-08-30T09:53:10.429Z,2.17
2022-08-30T09:56:05.632Z,2.20
2022-08-30T09:59:02.486Z,2.80
2022-08-30T10:01:56.738Z,3.10
2022-08-30T10:04:51.346Z,2.72
2022-08-30T10:07:45.727Z,2.20
2022-08-30T10:10:37.628Z,2.53
2022-08-30T10:13:34.139Z,2.40
2022-08-30T10:16:28.652Z,2.15
2022-08-30T10:19:23.392Z,2.65
2022-08-30T10:22:14.319Z,2.58
2022-08-30T10:25:06.822Z,3.33
2022-08-30T10:27:57.073Z,2.85
2022-08-30T10:30:49.993Z,2.78
2022-08-30T10:33:40.714Z,2.95
2022-08-30T10:36:32.619Z,2.83
2022-08-30T10:39:24.683Z,3.10
2022-08-30T10:42:16.487Z,2.58
2022-08-30T10:45:10.253Z,2.45
2022-08-30T10:48:03.181Z,2.45
2022-08-30T10:50:53.675Z,2.95
2022-08-30T10:53:45.144Z,2.55
2022-08-30T10:56:37.028Z,2.53
2022-08-30T10:59:26.110Z,2.78
2022-08-30T11:02:28.369Z,2.35
2022-08-30T11:05:27.987Z,2.45
2022-08-30T11:08:24.506Z,2.60
2022-08-30T11:11:19.540Z,2.35
2022-08-30T11:14:11.620Z,2.00
2022-08-30T11:17:02.067Z,2.47
2022-08-30T11:19:51.258Z,2.10
2022-08-30T11:22:41.622Z,2.25
2022-08-30T11:25:45.999Z,2.10
2022-08-30T11:29:01.052Z,2.20
2022-08-30T11:31:50.518Z,1.95
2022-08-30T11:34:59.710Z,2.05
2022-08-30T11:37:50.607Z,2.42
2022-08-30T11:40:49.164Z,2.28
2022-08-30T11:43:58.942Z,2.30
2022-08-30T11:46:47.794Z,1.95
2022-08-30T11:49:46.053Z,2.00
2022-08-30T11:52:43.009Z,1.80
2022-08-30T11:55:45.140Z,2.30
2022-08-30T11:58:44.016Z,2.50
2022-08-30T12:01:50.888Z,2.30
2022-08-30T12:04:46.110Z,2.25
2022-08-30T12:07:53.639Z,2.92
2022-08-30T12:10:47.309Z,2.03
2022-08-30T12:13:55.319Z,1.92
2022-08-30T12:17:00.420Z,1.95
2022-08-30T12:19:50.641Z,2.28
2022-08-30T12:22:40.507Z,2.33
2022-08-30T12:25:30.991Z,1.95
2022-08-30T12:28:25.907Z,2.00
2022-08-30T12:31:16.462Z,2.03
2022-08-30T12:34:05.403Z,2.33
2022-08-30T12:36:58.423Z,2.00
2022-08-30T12:39:53.453Z,1.98
2022-08-30T12:42:44.508Z,2.35
2022-08-30T12:45:35.787Z,1.80
2022-08-30T12:48:25.584Z,2.47
2022-08-30T12:51:36.165Z,2.25
2022-08-30T12:54:27.879Z,2.20
2022-08-30T12:57:36.714Z,2.22
2022-08-30T13:00:26.753Z,2.00
2022-08-30T13:03:30.157Z,2.10
2022-08-30T13:06:37.588Z,2.30
2022-08-30T13:09:28.228Z,2.40
2022-08-30T13:12:23.051Z,2.25
2022-08-30T13:15:17.471Z,1.95
2022-08-30T13:18:18.772Z,2.30
2022-08-30T13:21:25.115Z,1.90
2022-08-30T13:24:15.459Z,1.85
2022-08-30T13:27:09.583Z,1.73
2022-08-30T13:29:58.553Z,2.22
2022-08-30T13:32:47.362Z,1.90
2022-08-30T13:35:36.323Z,2.58
2022-08-30T13:38:27.929Z,2.30
2022-08-30T13:41:17.603Z,2.40
2022-08-30T13:44:11.354Z,1.92
2022-08-30T13:50:10.651Z,1.90
2022-08-30T13:52:59.535Z,1.90
2022-08-30T13:55:50.160Z,1.92
2022-08-30T13:58:39.011Z,2.20
2022-08-30T14:01:31.534Z,2.28
2022-08-30T14:04:40.250Z,2.10
2022-08-30T14:07:29.296Z,1.85
2022-08-30T14:10:45.643Z,2.15
2022-08-30T14:13:30.284Z,2.05
2022-08-30T14:16:27.226Z,1.98
2022-08-30T14:19:17.137Z,2.28
2022-08-30T14:22:06.188Z,2.17
2022-08-30T14:24:55.427Z,2.10
2022-08-30T14:27:44.311Z,1.98
2022-08-30T14:30:34.614Z,2.45
2022-08-30T14:33:23.702Z,1.77
2022-08-30T14:36:15.525Z,1.77
2022-08-30T14:39:08.587Z,1.98
2022-08-30T14:41:58.241Z,2.10
2022-08-30T14:44:56.730Z,2.63
2022-08-30T14:47:47.149Z,1.92
2022-08-30T14:50:36.231Z,2.13
2022-08-30T14:53:25.043Z,1.75
2022-08-30T14:56:15.180Z,1.75
2022-08-30T14:59:04.016Z,1.92
2022-08-30T15:01:53.441Z,2.00
2022-08-30T15:04:43.613Z,1.90
2022-08-30T15:07:32.628Z,2.05
2022-08-30T15:10:24.538Z,2.03
2022-08-30T15:13:13.422Z,1.77
2022-08-30T15:16:02.292Z,1.88
2022-08-30T15:18:51.561Z,1.73
2022-08-30T15:21:43.461Z,1.85
2022-08-30T15:24:33.266Z,1.83
2022-08-30T15:27:23.796Z,1.95
2022-08-30T15:30:15.092Z,2.15
2022-08-30T15:33:04.480Z,1.90
2022-08-30T15:35:53.346Z,1.70
2022-08-30T15:38:43.643Z,1.50
2022-08-30T15:41:32.608Z,1.65
2022-08-30T15:44:21.451Z,1.30
2022-08-30T15:47:10.272Z,1.73
2022-08-30T15:49:59.919Z,1.85
2022-08-30T15:52:48.746Z,2.13
2022-08-30T15:55:38.930Z,2.20
2022-08-30T15:58:27.740Z,1.52
2022-08-30T16:01:17.334Z,1.70
2022-08-30T16:04:08.610Z,1.75
2022-08-30T16:06:57.456Z,1.40
2022-08-30T16:09:46.323Z,1.20
2022-08-30T16:12:36.490Z,1.60
2022-08-30T16:15:25.399Z,1.33
2022-08-30T16:18:14.935Z,1.50
2022-08-30T16:21:04.783Z,1.63
2022-08-30T16:23:56.197Z,1.30
2022-08-30T16:26:45.177Z,1.20
2022-08-30T16:29:35.327Z,1.40
2022-08-30T16:32:24.502Z,1.23
2022-08-30T16:35:14.011Z,1.60
2022-08-30T16:38:02.834Z,1.47
2022-08-30T16:40:52.657Z,1.40
2022-08-30T16:43:42.357Z,1.23
2022-08-30T16:46:36.154Z,1.43
2022-08-30T16:49:25.741Z,1.77
2022-08-30T16:52:14.864Z,1.50
2022-08-30T16:55:03.937Z,1.40
2022-08-30T16:57:52.751Z,1.47
2022-08-30T17:00:41.613Z,1.80
2022-08-30T17:03:38.106Z,1.20
2022-08-30T17:06:28.014Z,1.43
2022-08-30T17:09:16.874Z,1.33
2022-08-30T17:12:06.925Z,1.77
2022-08-30T17:14:55.959Z,1.40
2022-08-30T17:17:45.259Z,1.50
2022-08-30T17:20:35.632Z,1.80
2022-08-30T17:23:24.476Z,1.60
2022-08-30T17:26:17.826Z,1.80
2022-08-30T17:29:07.790Z,2.10
2022-08-30T17:31:57.262Z,1.93
2022-08-30T17:34:46.302Z,1.50
2022-08-30T17:37:36.705Z,1.70
2022-08-30T17:40:25.725Z,2.00
2022-08-30T17:43:14.610Z,1.93
2022-08-30T17:46:07.721Z,1.80
2022-08-30T17:49:01.209Z,2.10
2022-08-30T17:51:54.227Z,1.97
2022-08-30T17:54:46.724Z,2.10
2022-08-30T17:57:35.815Z,2.23
2022-08-30T18:00:24.724Z,1.70
2022-08-30T18:03:14.051Z,2.10
2022-08-30T18:06:04.246Z,2.00
2022-08-30T18:08:53.086Z,2.20
2022-08-30T18:11:43.255Z,2.17
2022-08-30T18:14:32.093Z,2.57
2022-08-30T18:17:20.903Z,2.10
2022-08-30T18:20:10.359Z,2.50
2022-08-30T18:23:00.161Z,2.47
2022-08-30T18:25:52.588Z,1.50
2022-08-30T18:28:43.107Z,1.87
2022-08-30T18:31:33.038Z,2.47
2022-08-30T18:34:21.851Z,1.80
2022-08-30T18:37:12.318Z,1.90
2022-08-30T18:40:01.853Z,1.90
2022-08-30T18:42:51.395Z,2.77
2022-08-30T18:45:45.876Z,1.70
2022-08-30T18:48:37.531Z,1.70
2022-08-30T18:51:27.494Z,2.10
2022-08-30T18:54:16.825Z,1.90
2022-08-30T18:57:05.849Z,2.10
2022-08-30T18:59:55.020Z,2.53
2022-08-30T19:02:45.474Z,2.50
2022-08-30T19:05:35.234Z,1.63
2022-08-30T19:08:24.043Z,2.20
2022-08-30T19:11:13.063Z,1.57
2022-08-30T19:14:01.911Z,1.90
2022-08-30T19:16:50.886Z,1.70
2022-08-30T19:19:47.370Z,1.83
2022-08-30T19:23:05.852Z,1.57
2022-08-30T19:25:51.650Z,2.43
2022-08-30T19:28:42.517Z,2.37
2022-08-30T19:31:31.350Z,1.93
2022-08-30T19:34:21.164Z,2.07
2022-08-30T19:37:14.633Z,1.97
2022-08-30T19:40:06.694Z,1.40
2022-08-30T19:42:58.072Z,1.70
2022-08-30T19:45:47.272Z,1.90
2022-08-30T19:48:42.200Z,1.70
2022-08-30T19:51:31.542Z,1.80
2022-08-30T19:54:24.100Z,1.60
2022-08-30T19:57:13.071Z,2.53
2022-08-30T20:00:03.321Z,1.30
2022-08-30T20:02:52.353Z,1.50
2022-08-30T20:05:41.298Z,1.20
2022-08-30T20:08:30.261Z,1.63
2022-08-30T20:11:21.510Z,1.33
2022-08-30T20:14:13.543Z,1.50
2022-08-30T20:17:02.732Z,1.50
2022-08-30T20:19:51.558Z,1.20
2022-08-30T20:22:40.929Z,1.73
2022-08-30T20:25:39.566Z,1.87
2022-08-30T20:28:29.807Z,1.27
2022-08-30T20:31:19.823Z,1.50
2022-08-30T20:34:08.685Z,1.50
2022-08-30T20:36:58.454Z,1.17
2022-08-30T20:39:47.375Z,1.77
2022-08-30T20:42:36.250Z,1.63
2022-08-30T20:45:26.429Z,1.37
2022-08-30T20:48:20.458Z,1.87
2022-08-30T20:51:10.562Z,1.43
2022-08-30T20:53:59.439Z,1.60
2022-08-30T20:56:48.466Z,1.50
2022-08-30T20:59:37.460Z,1.30
2022-08-30T21:02:27.957Z,1.47
2022-08-30T21:05:17.828Z,1.70
2022-08-30T21:08:10.013Z,1.60
2022-08-30T21:10:59.139Z,1.40
2022-08-30T21:13:48.374Z,1.30
2022-08-30T21:16:37.445Z,1.77
2022-08-30T21:19:27.691Z,1.63
2022-08-30T21:22:16.564Z,1.90
2022-08-30T21:25:05.526Z,1.60
2022-08-30T21:27:54.851Z,1.50
2022-08-30T21:30:43.861Z,2.30
2022-08-30T21:33:32.780Z,2.13
2022-08-30T21:36:41.118Z,1.53
2022-08-30T21:39:29.986Z,1.80
2022-08-30T21:42:19.136Z,1.50
2022-08-30T21:45:08.393Z,1.97
2022-08-30T21:47:57.235Z,1.30
2022-08-30T21:50:46.660Z,2.00
2022-08-30T21:53:37.521Z,1.60
2022-08-30T21:56:26.363Z,1.80
2022-08-30T21:59:15.859Z,1.30
2022-08-30T22:02:04.774Z,1.47
2022-08-30T22:04:54.428Z,1.30
2022-08-30T22:07:43.339Z,1.67
2022-08-30T22:10:33.588Z,1.27
2022-08-30T22:13:22.435Z,1.70
2022-08-30T22:16:11.890Z,1.50
2022-08-30T22:19:01.327Z,1.20
2022-08-30T22:21:50.219Z,1.47
2022-08-30T22:24:39.461Z,1.53
2022-08-30T22:27:31.289Z,1.30
2022-08-30T22:30:20.248Z,1.43
2022-08-30T22:33:09.371Z,1.27
2022-08-30T22:35:58.247Z,1.50
2022-08-30T22:38:47.143Z,1.60
2022-08-30T22:41:36.781Z,1.53
2022-08-30T22:44:27.302Z,1.47
2022-08-30T22:47:16.160Z,1.57
2022-08-30T22:50:05.158Z,1.83
2022-08-30T22:52:53.985Z,1.30
2022-08-30T22:55:42.803Z,1.33
2022-08-30T22:58:31.630Z,1.60
2022-08-30T23:01:23.724Z,1.50
2022-08-30T23:04:13.095Z,1.43
2022-08-30T23:07:01.905Z,1.40
2022-08-30T23:09:51.171Z,2.20
2022-08-30T23:12:40.042Z,1.57
2022-08-30T23:15:29.638Z,1.73
2022-08-30T23:18:19.898Z,1.70
2022-08-30T23:21:10.842Z,1.77
2022-08-30T23:24:18.055Z,1.80
2022-08-30T23:27:24.483Z,1.53
2022-08-30T23:30:31.402Z,1.50
2022-08-30T23:33:39.102Z,1.80
2022-08-30T23:36:45.512Z,1.60
2022-08-30T23:39:52.061Z,1.80
2022-08-30T23:42:58.623Z,1.63
2022-08-30T23:46:05.376Z,1.80
2022-08-30T23:49:13.570Z,1.67
2022-08-30T23:52:20.155Z,1.40
2022-08-30T23:55:27.274Z,1.53
2022-08-30T23:58:33.914Z,1.77
